createdAt,value
2023-04-20T00:02:42.615Z,99.90
2023-04-20T00:07:29.660Z,99.90
2023-04-20T00:12:17.166Z,99.90
2023-04-20T00:17:04.092Z,99.90
2023-04-20T00:21:55.113Z,99.90
2023-04-20T00:26:41.559Z,99.90
2023-04-20T00:31:28.832Z,99.90
2023-04-20T00:36:18.769Z,99.90
2023-04-20T00:41:07.434Z,99.90
2023-04-20T00:45:53.670Z,99.90
2023-04-20T00:50:42.018Z,99.90
2023-04-20T00:55:29.299Z,99.90
2023-04-20T01:00:17.861Z,99.90
2023-04-20T01:05:09.665Z,99.90
2023-04-20T01:09:53.372Z,99.90
2023-04-20T01:14:40.095Z,99.90
2023-04-20T01:19:46.852Z,99.90
2023-04-20T01:24:34.831Z,99.90
2023-04-20T01:29:21.494Z,99.90
2023-04-20T01:34:06.743Z,99.90
2023-04-20T01:38:55.136Z,99.90
2023-04-20T01:44:01.607Z,99.90
2023-04-20T01:48:54.413Z,99.90
2023-04-20T01:53:51.552Z,99.90
2023-04-20T01:58:44.798Z,99.90
2023-04-20T02:03:30.065Z,99.90
2023-04-20T02:08:15.298Z,99.90
2023-04-20T02:13:19.877Z,99.90
2023-04-20T02:18:13.377Z,99.90
2023-04-20T02:22:58.703Z,99.90
2023-04-20T02:27:45.389Z,99.90
2023-04-20T02:32:38.569Z,99.90
2023-04-20T02:37:52.849Z,99.90
2023-04-20T02:42:43.133Z,99.90
2023-04-20T02:47:50.636Z,99.90
2023-04-20T02:53:03.230Z,99.90
2023-04-20T02:57:53.052Z,99.90
2023-04-20T03:02:40.596Z,99.90
2023-04-20T03:07:28.088Z,99.90
2023-04-20T03:12:18.434Z,99.90
2023-04-20T03:17:22.597Z,99.90
2023-04-20T03:22:40.797Z,99.90
2023-04-20T03:27:30.428Z,99.90
2023-04-20T03:32:45.740Z,99.90
2023-04-20T03:37:55.589Z,99.90
2023-04-20T03:42:39.384Z,99.90
2023-04-20T03:48:03.404Z,99.90
2023-04-20T03:52:48.582Z,99.90
2023-04-20T03:57:35.772Z,99.90
2023-04-20T04:02:40.256Z,99.90
2023-04-20T04:07:28.778Z,99.90
2023-04-20T04:12:18.394Z,99.90
2023-04-20T04:17:04.233Z,99.90
2023-04-20T04:21:51.394Z,99.90
2023-04-20T04:27:02.260Z,99.90
2023-04-20T04:32:05.382Z,99.90
2023-04-20T04:36:49.261Z,99.90
2023-04-20T04:41:38.287Z,99.90
2023-04-20T04:46:56.590Z,99.90
2023-04-20T04:51:43.365Z,99.90
2023-04-20T04:56:37.461Z,99.90
2023-04-20T05:01:21.394Z,99.90
2023-04-20T05:06:25.406Z,99.90
2023-04-20T05:11:12.584Z,99.90
2023-04-20T05:15:59.256Z,99.90
2023-04-20T05:20:49.908Z,99.90
2023-04-20T05:25:38.797Z,99.90
2023-04-20T05:30:25.658Z,99.90
2023-04-20T05:35:12.269Z,99.90
2023-04-20T05:39:59.114Z,99.90
2023-04-20T05:44:52.214Z,99.90
2023-04-20T05:49:36.003Z,99.90
2023-04-20T05:54:25.269Z,99.90
2023-04-20T05:59:12.148Z,99.90
2023-04-20T06:04:02.124Z,99.90
2023-04-20T06:08:47.475Z,99.90
2023-04-20T06:13:35.280Z,99.90
2023-04-20T06:18:27.922Z,99.90
2023-04-20T06:23:16.277Z,99.90
2023-04-20T06:27:59.896Z,99.90
2023-04-20T06:32:48.921Z,99.90
2023-04-20T06:37:42.769Z,99.90
2023-04-20T06:42:58.479Z,99.90
2023-04-20T06:48:03.242Z,99.90
2023-04-20T06:52:49.677Z,99.90
2023-04-20T06:57:35.465Z,99.90
2023-04-20T07:02:23.371Z,99.90
2023-04-20T07:07:11.846Z,99.90
2023-04-20T07:12:01.408Z,99.90
2023-04-20T07:16:48.611Z,99.90
2023-04-20T07:21:52.528Z,99.90
2023-04-20T07:26:39.222Z,99.90
2023-04-20T07:31:31.966Z,99.90
2023-04-20T07:36:16.538Z,99.90
2023-04-20T07:41:05.341Z,99.90
2023-04-20T07:45:50.717Z,99.90
2023-04-20T07:50:40.215Z,99.90
2023-04-20T07:55:26.041Z,99.90
2023-04-20T08:00:20.307Z,99.90
2023-04-20T08:05:04.404Z,99.90
2023-04-20T08:09:51.648Z,99.90
2023-04-20T08:14:41.586Z,99.90
2023-04-20T08:19:31.295Z,99.90
2023-04-20T08:24:17.364Z,99.90
2023-04-20T08:29:07.673Z,99.90
2023-04-20T08:33:51.432Z,99.90
2023-04-20T08:38:39.264Z,99.90
2023-04-20T08:43:28.360Z,99.90
2023-04-20T08:48:18.636Z,98.40
2023-04-20T08:53:07.675Z,74.80
2023-04-20T08:57:55.322Z,45.50
2023-04-20T09:02:59.071Z,29.30
2023-04-20T09:07:56.722Z,47.40
2023-04-20T09:12:46.874Z,54.60
2023-04-20T09:17:52.614Z,73.90
2023-04-20T09:22:43.595Z,47.40
2023-04-20T09:27:27.635Z,75.80
2023-04-20T09:32:34.809Z,30.60
2023-04-20T09:37:20.089Z,39.00
2023-04-20T09:42:13.909Z,33.00
2023-04-20T09:46:58.149Z,41.80
2023-04-20T09:51:47.994Z,90.60
2023-04-20T09:56:36.137Z,49.60
2023-04-20T10:01:23.896Z,44.40
2023-04-20T10:06:08.070Z,77.30
2023-04-20T10:10:57.713Z,49.50
2023-04-20T10:15:45.256Z,99.90
2023-04-20T10:20:34.842Z,96.30
2023-04-20T10:25:22.483Z,99.90
2023-04-20T10:30:12.913Z,99.90
2023-04-20T10:35:08.073Z,99.90
2023-04-20T10:39:58.661Z,99.90
2023-04-20T10:45:03.614Z,99.90
2023-04-20T10:50:06.841Z,99.90
2023-04-20T10:54:56.583Z,99.90
2023-04-20T10:59:49.460Z,99.90
2023-04-20T11:04:33.776Z,99.90
2023-04-20T11:09:23.074Z,99.90
2023-04-20T11:14:13.272Z,99.90
2023-04-20T11:18:58.340Z,99.90
2023-04-20T11:23:45.229Z,99.90
2023-04-20T11:28:34.620Z,99.90
2023-04-20T11:34:10.199Z,91.00
2023-04-20T11:39:14.177Z,81.00
2023-04-20T11:44:03.817Z,76.30
2023-04-20T11:48:48.152Z,95.80
2023-04-20T11:53:41.442Z,74.10
2023-04-20T11:58:26.546Z,97.50
2023-04-20T12:03:13.213Z,62.70
2023-04-20T12:07:59.942Z,45.00
2023-04-20T12:12:53.810Z,87.50
2023-04-20T12:17:38.735Z,62.50
2023-04-20T12:22:26.178Z,49.60
2023-04-20T12:27:11.527Z,14.40
2023-04-20T12:32:01.314Z,53.00
2023-04-20T12:37:04.057Z,49.10
2023-04-20T12:42:25.542Z,54.60
2023-04-20T12:47:13.726Z,88.50
2023-04-20T12:52:00.428Z,72.80
2023-04-20T12:56:48.255Z,60.90
2023-04-20T13:01:37.412Z,76.40
2023-04-20T13:06:24.436Z,75.40
2023-04-20T13:11:18.006Z,95.90
2023-04-20T13:16:03.366Z,80.90
2023-04-20T13:20:50.167Z,56.40
2023-04-20T13:25:38.347Z,74.90
2023-04-20T13:30:24.975Z,68.50
2023-04-20T13:35:14.688Z,30.80
2023-04-20T13:40:00.652Z,4.00
2023-04-20T13:44:47.895Z,1.00
2023-04-20T13:49:37.307Z,4.50
2023-04-20T13:54:40.009Z,6.70
2023-04-20T13:59:29.162Z,12.40
2023-04-20T14:04:19.144Z,4.70
2023-04-20T14:09:05.042Z,1.00
2023-04-20T14:13:52.682Z,4.20
2023-04-20T14:18:38.359Z,1.00
2023-04-20T14:23:26.331Z,1.00
2023-04-20T14:28:18.644Z,1.00
2023-04-20T14:33:04.383Z,1.00
2023-04-20T14:37:54.674Z,1.00
2023-04-20T14:42:39.917Z,1.00
2023-04-20T14:47:29.164Z,1.00
2023-04-20T14:52:19.120Z,1.00
2023-04-20T14:57:06.680Z,1.00
2023-04-20T15:02:01.767Z,1.00
2023-04-20T15:06:58.692Z,1.00
2023-04-20T15:11:47.216Z,1.00
2023-04-20T15:16:31.902Z,1.00
2023-04-20T15:21:21.552Z,1.00
2023-04-20T15:26:10.939Z,1.00
2023-04-20T15:30:56.145Z,1.00
2023-04-20T15:35:45.967Z,1.00
2023-04-20T15:40:32.544Z,1.00
2023-04-20T15:45:21.278Z,1.00
2023-04-20T15:50:54.590Z,1.00
2023-04-20T15:55:44.675Z,1.00
2023-04-20T16:00:34.076Z,1.00
2023-04-20T16:05:19.132Z,1.00
2023-04-20T16:10:09.543Z,1.00
2023-04-20T16:15:46.695Z,3.60
2023-04-20T16:20:31.628Z,1.00
2023-04-20T16:25:24.620Z,1.00
2023-04-20T16:30:09.909Z,1.00
2023-04-20T16:34:56.450Z,1.00
2023-04-20T16:39:45.169Z,1.00
2023-04-20T16:44:33.437Z,1.00
2023-04-20T16:49:23.476Z,1.00
2023-04-20T16:54:07.075Z,1.00
2023-04-20T16:58:56.576Z,1.00
2023-04-20T17:03:57.756Z,1.00
2023-04-20T17:08:47.504Z,1.00
2023-04-20T17:13:37.255Z,1.00
2023-04-20T17:18:23.645Z,1.00
2023-04-20T17:23:13.652Z,1.00
2023-04-20T17:28:03.714Z,1.00
2023-04-20T17:32:47.477Z,1.00
2023-04-20T17:37:40.242Z,1.00
2023-04-20T17:42:23.947Z,2.20
2023-04-20T17:47:15.011Z,3.90
2023-04-20T17:52:01.043Z,12.30
2023-04-20T17:56:49.232Z,15.90
2023-04-20T18:01:38.743Z,38.20
2023-04-20T18:06:24.259Z,45.70
2023-04-20T18:11:14.948Z,99.90
2023-04-20T18:16:14.491Z,99.90
2023-04-20T18:21:02.053Z,99.90
2023-04-20T18:25:53.568Z,99.90
2023-04-20T18:30:38.806Z,99.90
2023-04-20T18:35:27.500Z,99.90
2023-04-20T18:40:17.342Z,99.90
2023-04-20T18:45:03.826Z,99.90
2023-04-20T18:49:53.251Z,99.90
2023-04-20T18:54:40.666Z,99.90
2023-04-20T18:59:29.180Z,99.90
2023-04-20T19:04:19.139Z,99.90
2023-04-20T19:09:07.905Z,99.90
2023-04-20T19:13:53.433Z,99.90
2023-04-20T19:18:39.009Z,99.90
2023-04-20T19:23:28.710Z,1.00
2023-04-20T19:28:17.496Z,1.00
2023-04-20T19:33:05.020Z,1.00
2023-04-20T19:37:51.650Z,1.00
2023-04-20T19:42:42.408Z,99.90
2023-04-20T19:47:29.064Z,1.00
2023-04-20T19:52:16.453Z,1.00
2023-04-20T19:57:04.613Z,1.00
2023-04-20T20:01:54.089Z,99.90
2023-04-20T20:06:40.651Z,99.90
2023-04-20T20:11:48.639Z,1.00
2023-04-20T20:16:36.278Z,99.90
2023-04-20T20:21:19.683Z,99.90
2023-04-20T20:26:09.397Z,99.90
2023-04-20T20:30:57.827Z,99.90
2023-04-20T20:35:44.522Z,1.00
2023-04-20T20:40:35.535Z,1.00
2023-04-20T20:45:22.242Z,1.00
2023-04-20T20:50:09.385Z,1.00
2023-04-20T20:54:56.345Z,1.00
2023-04-20T20:59:44.755Z,1.00
2023-04-20T21:04:34.401Z,1.00
2023-04-20T21:09:21.601Z,99.90
2023-04-20T21:14:07.252Z,65.90
2023-04-20T21:18:56.881Z,99.90
2023-04-20T21:23:43.664Z,1.00
2023-04-20T21:28:36.078Z,1.00
2023-04-20T21:33:19.899Z,1.00
2023-04-20T21:38:09.410Z,99.90
2023-04-20T21:42:59.277Z,1.00
2023-04-20T21:47:44.288Z,1.00
2023-04-20T21:52:33.949Z,1.00
2023-04-20T21:57:19.469Z,1.00
2023-04-20T22:02:08.825Z,99.90
2023-04-20T22:06:56.942Z,1.00
2023-04-20T22:11:46.618Z,1.00
2023-04-20T22:16:34.064Z,1.00
2023-04-20T22:21:21.470Z,1.00
2023-04-20T22:26:10.187Z,1.00
2023-04-20T22:30:57.267Z,39.50
2023-04-20T22:35:43.960Z,99.90
2023-04-20T22:40:33.858Z,99.90
2023-04-20T22:45:39.841Z,99.90
2023-04-20T22:50:23.852Z,99.90
2023-04-20T22:55:12.391Z,99.90
2023-04-20T23:00:01.414Z,99.90
2023-04-20T23:04:48.890Z,99.90
2023-04-20T23:09:41.330Z,99.90
2023-04-20T23:14:25.726Z,99.90
2023-04-20T23:19:13.256Z,99.90
2023-04-20T23:24:00.997Z,99.90
2023-04-20T23:28:52.296Z,99.90
2023-04-20T23:33:35.796Z,99.90
2023-04-20T23:38:23.952Z,99.90
2023-04-20T23:43:16.258Z,99.90
2023-04-20T23:47:59.712Z,99.90
2023-04-20T23:52:54.242Z,99.90
2023-04-20T23:57:37.771Z,99.90
